Haskins, Ohio
Current Conditions -  °F | °C
As of 1:52 PM on Tuesday 21 Oct 2014 (Local Time) from KTOL Reporting Station
Overcast Overcast  
Wind Chill:   Ceiling: 2300
Heat Index:   Visibility: 10mi
Dew Point:   Wind: 17mph
Humidity: 71%   Direction: 360°N
Pressure: 30.06"   Gusts: 25mph
Location:  41.46°N, 83.71°W
Report Text: KTOL 211752Z 36015G22KT 10SM BKN023 OVC028 09/04 A3006 RMK AO2 SLP182 60000 T00890039 10100 20083 51015 $
Loading
Personal Weather Stations






























Interactive Weather Map
Tropical Storm Tracking
New forecast layout! Learn more

10-Day Weather Forecast

Advertisements
Track Severe Weather on mobile